バクー の空港の天気 - METARとTAF

ヘイダル・アリエフ国際空港(バクー) ( UBBB / BAK ) - アゼルバイジャン バクー
飛行場実況気象(Metar)
観測時間12/10 09:00 AZT (12/10 05:00 UTC)
風向・風速南南西 5m/s
視程10km以上
天気現象
全天の4割程度の雲 雲底高度 460m
全天の8割程度の雲 雲底高度 820m
気温9℃
湿度81%
気圧1019hPa
METARUBBB 100500Z 21009KT 9999 SCT015 BKN027 09/06 Q1019 R88/190065 NOSIG
過去の天気等 Google飛行場航空写真 Wunderground天気予報

過去48時間のMETAR

飛行場予報(TAF)
発表時間: 12/10 03:06 AZT (12/09 23:06 UTC)
予報対象時間: 10日4時 AZT ~ 11日4時 AZT
風向・風速南南東 3m/s
視程10km以上
全天を覆う雲 雲底高度 610m
10日4時 AZT ~ 10日9時 AZT に一時的に
風向・風速不定 2m/s
天気現象弱い雨
全天の4割程度の雲 雲底高度 150m
10日10時 AZT ~ 10日12時 AZT に徐々に
風向・風速南 7m/s
全天の4割程度の雲 雲底高度 300m
全天の8割程度の雲 雲底高度 760m
10日12時 AZT ~ 10日22時 AZT に一時的に
風向・風速南 10m/s
天気現象弱い雨
全天の4割程度の雲 雲底高度 210m
全天を覆う雲 雲底高度 460m
TAF UBBB 092306Z 1000/1024 16006KT 9999 OVC020 TX11/1011Z TN06/1003Z
TEMPO 1000/1005 VRB04KT -RA SCT005
BECMG 1006/1008 17014KT SCT010 BKN025
TEMPO 1008/1018 19020KT -RA SCT007 OVC015